sensor_id;sensor_type;location;lat;lon;timestamp;P1;durP1;ratioP1;P2;durP2;ratioP2
48363;SDS011;34170;54.364;18.582;2023-04-23T00:01:27;7.95;;;4.03;;
48363;SDS011;34170;54.364;18.582;2023-04-23T00:03:56;7.03;;;3.78;;
48363;SDS011;34170;54.364;18.582;2023-04-23T00:06:25;7.32;;;3.70;;
48363;SDS011;34170;54.364;18.582;2023-04-23T00:08:52;7.60;;;3.78;;
48363;SDS011;34170;54.364;18.582;2023-04-23T00:11:21;8.70;;;3.78;;
48363;SDS011;34170;54.364;18.582;2023-04-23T00:13:49;5.90;;;3.10;;
48363;SDS011;34170;54.364;18.582;2023-04-23T00:16:17;7.13;;;3.50;;
48363;SDS011;34170;54.364;18.582;2023-04-23T00:18:45;6.45;;;3.03;;
48363;SDS011;34170;54.364;18.582;2023-04-23T00:21:13;6.70;;;3.45;;
48363;SDS011;34170;54.364;18.582;2023-04-23T00:23:41;7.20;;;3.28;;
48363;SDS011;34170;54.364;18.582;2023-04-23T00:26:08;9.50;;;3.47;;
48363;SDS011;34170;54.364;18.582;2023-04-23T00:28:36;6.72;;;3.28;;
48363;SDS011;34170;54.364;18.582;2023-04-23T00:31:03;6.28;;;3.33;;
48363;SDS011;34170;54.364;18.582;2023-04-23T00:33:31;6.15;;;3.05;;
48363;SDS011;34170;54.364;18.582;2023-04-23T00:35:58;10.10;;;5.70;;
48363;SDS011;34170;54.364;18.582;2023-04-23T00:38:26;6.82;;;3.10;;
48363;SDS011;34170;54.364;18.582;2023-04-23T00:40:54;8.40;;;3.30;;
48363;SDS011;34170;54.364;18.582;2023-04-23T00:43:21;9.23;;;3.78;;
48363;SDS011;34170;54.364;18.582;2023-04-23T00:45:50;6.00;;;3.05;;
48363;SDS011;34170;54.364;18.582;2023-04-23T00:48:17;5.30;;;2.92;;
48363;SDS011;34170;54.364;18.582;2023-04-23T00:50:45;9.38;;;3.67;;
48363;SDS011;34170;54.364;18.582;2023-04-23T00:53:12;8.20;;;3.65;;
48363;SDS011;34170;54.364;18.582;2023-04-23T00:55:40;8.15;;;3.45;;
48363;SDS011;34170;54.364;18.582;2023-04-23T00:58:07;7.97;;;3.45;;
48363;SDS011;34170;54.364;18.582;2023-04-23T01:00:35;6.13;;;3.45;;
48363;SDS011;34170;54.364;18.582;2023-04-23T01:03:10;8.57;;;3.58;;
48363;SDS011;34170;54.364;18.582;2023-04-23T01:05:40;7.97;;;3.75;;
48363;SDS011;34170;54.364;18.582;2023-04-23T01:08:09;6.97;;;4.00;;
48363;SDS011;34170;54.364;18.582;2023-04-23T01:10:42;7.45;;;3.40;;
48363;SDS011;34170;54.364;18.582;2023-04-23T01:13:13;7.30;;;4.57;;
48363;SDS011;34170;54.364;18.582;2023-04-23T01:15:42;9.40;;;4.57;;
48363;SDS011;34170;54.364;18.582;2023-04-23T01:18:10;9.38;;;4.22;;
48363;SDS011;34170;54.364;18.582;2023-04-23T01:20:39;7.90;;;3.75;;
48363;SDS011;34170;54.364;18.582;2023-04-23T01:23:06;10.32;;;4.70;;
48363;SDS011;34170;54.364;18.582;2023-04-23T01:25:34;9.38;;;4.35;;
48363;SDS011;34170;54.364;18.582;2023-04-23T01:28:02;11.60;;;4.47;;
48363;SDS011;34170;54.364;18.582;2023-04-23T01:30:31;10.82;;;4.47;;
48363;SDS011;34170;54.364;18.582;2023-04-23T01:33:00;9.02;;;4.38;;
48363;SDS011;34170;54.364;18.582;2023-04-23T01:35:29;7.13;;;4.10;;
48363;SDS011;34170;54.364;18.582;2023-04-23T01:37:56;9.95;;;4.65;;
48363;SDS011;34170;54.364;18.582;2023-04-23T01:40:26;6.72;;;4.03;;
48363;SDS011;34170;54.364;18.582;2023-04-23T01:42:54;9.20;;;4.63;;
48363;SDS011;34170;54.364;18.582;2023-04-23T01:45:23;10.48;;;4.47;;
48363;SDS011;34170;54.364;18.582;2023-04-23T01:47:51;12.18;;;4.53;;
48363;SDS011;34170;54.364;18.582;2023-04-23T01:50:19;8.48;;;4.50;;
48363;SDS011;34170;54.364;18.582;2023-04-23T01:52:50;8.00;;;4.22;;
48363;SDS011;34170;54.364;18.582;2023-04-23T01:55:19;12.75;;;5.15;;
48363;SDS011;34170;54.364;18.582;2023-04-23T01:57:46;10.23;;;4.53;;
48363;SDS011;34170;54.364;18.582;2023-04-23T02:00:14;9.43;;;4.57;;
48363;SDS011;34170;54.364;18.582;2023-04-23T02:02:43;11.00;;;5.10;;
48363;SDS011;34170;54.364;18.582;2023-04-23T02:05:12;10.38;;;4.82;;
48363;SDS011;34170;54.364;18.582;2023-04-23T02:07:42;10.80;;;4.93;;
48363;SDS011;34170;54.364;18.582;2023-04-23T02:10:11;9.63;;;4.88;;
48363;SDS011;34170;54.364;18.582;2023-04-23T02:12:38;7.60;;;4.57;;
48363;SDS011;34170;54.364;18.582;2023-04-23T02:15:08;8.98;;;4.72;;
48363;SDS011;34170;54.364;18.582;2023-04-23T02:17:37;10.68;;;5.07;;
48363;SDS011;34170;54.364;18.582;2023-04-23T02:20:08;10.82;;;4.80;;
48363;SDS011;34170;54.364;18.582;2023-04-23T02:22:37;10.75;;;5.10;;
48363;SDS011;34170;54.364;18.582;2023-04-23T02:25:07;10.18;;;5.32;;
48363;SDS011;34170;54.364;18.582;2023-04-23T02:27:34;8.93;;;4.82;;
48363;SDS011;34170;54.364;18.582;2023-04-23T02:30:03;10.25;;;5.15;;
48363;SDS011;34170;54.364;18.582;2023-04-23T02:32:31;10.60;;;5.05;;
48363;SDS011;34170;54.364;18.582;2023-04-23T02:34:59;10.05;;;5.03;;
48363;SDS011;34170;54.364;18.582;2023-04-23T02:37:27;9.80;;;5.47;;
48363;SDS011;34170;54.364;18.582;2023-04-23T02:39:55;11.55;;;5.45;;
48363;SDS011;34170;54.364;18.582;2023-04-23T02:42:22;11.27;;;5.47;;
48363;SDS011;34170;54.364;18.582;2023-04-23T02:44:50;10.68;;;5.22;;
48363;SDS011;34170;54.364;18.582;2023-04-23T02:47:17;11.55;;;5.50;;
48363;SDS011;34170;54.364;18.582;2023-04-23T02:49:45;11.75;;;5.32;;
48363;SDS011;34170;54.364;18.582;2023-04-23T02:52:12;12.70;;;5.13;;
48363;SDS011;34170;54.364;18.582;2023-04-23T02:54:40;12.60;;;6.00;;
48363;SDS011;34170;54.364;18.582;2023-04-23T02:57:08;11.57;;;5.82;;
48363;SDS011;34170;54.364;18.582;2023-04-23T02:59:36;10.18;;;5.60;;
48363;SDS011;34170;54.364;18.582;2023-04-23T03:02:03;13.70;;;5.93;;
48363;SDS011;34170;54.364;18.582;2023-04-23T03:04:31;12.15;;;5.28;;
48363;SDS011;34170;54.364;18.582;2023-04-23T03:06:58;13.43;;;5.75;;
48363;SDS011;34170;54.364;18.582;2023-04-23T03:09:25;11.20;;;5.90;;
48363;SDS011;34170;54.364;18.582;2023-04-23T03:11:53;11.85;;;5.88;;
48363;SDS011;34170;54.364;18.582;2023-04-23T03:14:20;12.88;;;5.75;;
48363;SDS011;34170;54.364;18.582;2023-04-23T03:16:47;9.93;;;5.78;;
48363;SDS011;34170;54.364;18.582;2023-04-23T03:19:15;10.75;;;5.95;;
48363;SDS011;34170;54.364;18.582;2023-04-23T03:21:43;11.45;;;5.90;;
48363;SDS011;34170;54.364;18.582;2023-04-23T03:24:11;13.32;;;6.47;;
48363;SDS011;34170;54.364;18.582;2023-04-23T03:26:39;10.95;;;5.90;;
48363;SDS011;34170;54.364;18.582;2023-04-23T03:29:08;11.70;;;6.10;;
48363;SDS011;34170;54.364;18.582;2023-04-23T03:31:36;13.43;;;6.40;;
48363;SDS011;34170;54.364;18.582;2023-04-23T03:34:04;9.77;;;5.35;;
48363;SDS011;34170;54.364;18.582;2023-04-23T03:36:34;11.82;;;6.05;;
48363;SDS011;34170;54.364;18.582;2023-04-23T03:39:02;12.85;;;6.38;;
48363;SDS011;34170;54.364;18.582;2023-04-23T03:41:41;14.25;;;6.68;;
48363;SDS011;34170;54.364;18.582;2023-04-23T03:44:11;11.45;;;6.55;;
48363;SDS011;34170;54.364;18.582;2023-04-23T03:46:41;11.40;;;6.03;;
48363;SDS011;34170;54.364;18.582;2023-04-23T03:49:09;14.57;;;6.70;;
48363;SDS011;34170;54.364;18.582;2023-04-23T03:51:36;13.43;;;6.88;;
48363;SDS011;34170;54.364;18.582;2023-04-23T03:54:04;11.38;;;6.57;;
48363;SDS011;34170;54.364;18.582;2023-04-23T03:56:39;12.77;;;6.53;;
48363;SDS011;34170;54.364;18.582;2023-04-23T03:59:17;12.95;;;6.93;;
48363;SDS011;34170;54.364;18.582;2023-04-23T04:01:46;11.95;;;6.93;;
48363;SDS011;34170;54.364;18.582;2023-04-23T04:04:14;14.45;;;6.95;;
48363;SDS011;34170;54.364;18.582;2023-04-23T04:06:42;14.88;;;7.30;;
48363;SDS011;34170;54.364;18.582;2023-04-23T04:09:10;13.20;;;6.60;;
48363;SDS011;34170;54.364;18.582;2023-04-23T04:11:37;13.15;;;6.80;;
48363;SDS011;34170;54.364;18.582;2023-04-23T04:14:04;10.43;;;6.45;;
48363;SDS011;34170;54.364;18.582;2023-04-23T04:16:32;13.43;;;7.22;;
48363;SDS011;34170;54.364;18.582;2023-04-23T04:18:59;12.65;;;6.80;;
48363;SDS011;34170;54.364;18.582;2023-04-23T04:21:27;12.02;;;6.78;;
48363;SDS011;34170;54.364;18.582;2023-04-23T04:23:54;12.98;;;7.13;;
48363;SDS011;34170;54.364;18.582;2023-04-23T04:26:22;12.57;;;7.05;;
48363;SDS011;34170;54.364;18.582;2023-04-23T04:28:49;11.80;;;6.95;;
48363;SDS011;34170;54.364;18.582;2023-04-23T04:31:17;11.55;;;7.43;;
48363;SDS011;34170;54.364;18.582;2023-04-23T04:33:46;12.35;;;6.97;;
48363;SDS011;34170;54.364;18.582;2023-04-23T04:36:14;11.45;;;6.35;;
48363;SDS011;34170;54.364;18.582;2023-04-23T04:38:41;11.82;;;6.80;;
48363;SDS011;34170;54.364;18.582;2023-04-23T04:41:09;11.43;;;7.05;;
48363;SDS011;34170;54.364;18.582;2023-04-23T04:43:37;14.95;;;6.93;;
48363;SDS011;34170;54.364;18.582;2023-04-23T04:46:05;12.13;;;6.90;;
48363;SDS011;34170;54.364;18.582;2023-04-23T04:48:33;12.23;;;7.05;;
48363;SDS011;34170;54.364;18.582;2023-04-23T04:51:01;12.52;;;6.95;;
48363;SDS011;34170;54.364;18.582;2023-04-23T04:53:28;15.30;;;7.05;;
48363;SDS011;34170;54.364;18.582;2023-04-23T04:55:55;13.35;;;6.88;;
48363;SDS011;34170;54.364;18.582;2023-04-23T04:58:23;12.77;;;7.25;;
48363;SDS011;34170;54.364;18.582;2023-04-23T05:00:50;10.50;;;6.45;;
48363;SDS011;34170;54.364;18.582;2023-04-23T05:03:18;11.25;;;6.65;;
48363;SDS011;34170;54.364;18.582;2023-04-23T05:05:46;11.40;;;7.05;;
48363;SDS011;34170;54.364;18.582;2023-04-23T05:08:14;13.68;;;7.68;;
48363;SDS011;34170;54.364;18.582;2023-04-23T05:10:47;11.93;;;7.47;;
48363;SDS011;34170;54.364;18.582;2023-04-23T05:13:16;11.63;;;6.68;;
48363;SDS011;34170;54.364;18.582;2023-04-23T05:15:44;11.93;;;6.47;;
48363;SDS011;34170;54.364;18.582;2023-04-23T05:18:12;13.77;;;7.22;;
48363;SDS011;34170;54.364;18.582;2023-04-23T05:20:39;12.13;;;7.03;;
48363;SDS011;34170;54.364;18.582;2023-04-23T05:23:07;12.07;;;7.15;;
48363;SDS011;34170;54.364;18.582;2023-04-23T05:25:34;10.93;;;6.47;;
48363;SDS011;34170;54.364;18.582;2023-04-23T05:28:02;9.48;;;6.32;;
48363;SDS011;34170;54.364;18.582;2023-04-23T05:30:30;12.98;;;6.93;;
48363;SDS011;34170;54.364;18.582;2023-04-23T05:32:57;14.27;;;7.25;;
48363;SDS011;34170;54.364;18.582;2023-04-23T05:35:24;13.38;;;6.80;;
48363;SDS011;34170;54.364;18.582;2023-04-23T05:37:52;12.80;;;7.50;;
48363;SDS011;34170;54.364;18.582;2023-04-23T05:40:19;11.57;;;6.00;;
48363;SDS011;34170;54.364;18.582;2023-04-23T05:42:47;12.45;;;6.63;;
48363;SDS011;34170;54.364;18.582;2023-04-23T05:45:14;12.90;;;6.82;;
48363;SDS011;34170;54.364;18.582;2023-04-23T05:47:42;12.77;;;6.72;;
48363;SDS011;34170;54.364;18.582;2023-04-23T05:50:09;13.68;;;6.75;;
48363;SDS011;34170;54.364;18.582;2023-04-23T05:52:37;11.60;;;6.40;;
48363;SDS011;34170;54.364;18.582;2023-04-23T05:55:05;9.98;;;6.15;;
48363;SDS011;34170;54.364;18.582;2023-04-23T05:57:36;11.43;;;5.23;;
48363;SDS011;34170;54.364;18.582;2023-04-23T06:00:05;12.75;;;7.05;;
48363;SDS011;34170;54.364;18.582;2023-04-23T06:02:39;9.02;;;6.20;;
48363;SDS011;34170;54.364;18.582;2023-04-23T06:05:07;10.35;;;6.63;;
48363;SDS011;34170;54.364;18.582;2023-04-23T06:07:35;14.88;;;6.85;;
48363;SDS011;34170;54.364;18.582;2023-04-23T06:10:03;13.52;;;6.43;;
48363;SDS011;34170;54.364;18.582;2023-04-23T06:12:31;11.25;;;6.53;;
48363;SDS011;34170;54.364;18.582;2023-04-23T06:14:59;10.57;;;6.18;;
48363;SDS011;34170;54.364;18.582;2023-04-23T06:17:26;11.85;;;6.43;;
48363;SDS011;34170;54.364;18.582;2023-04-23T06:19:53;12.07;;;6.07;;
48363;SDS011;34170;54.364;18.582;2023-04-23T06:22:21;8.80;;;6.57;;
48363;SDS011;34170;54.364;18.582;2023-04-23T06:24:48;9.98;;;6.53;;
48363;SDS011;34170;54.364;18.582;2023-04-23T06:27:16;10.10;;;6.10;;
48363;SDS011;34170;54.364;18.582;2023-04-23T06:29:47;11.80;;;6.85;;
48363;SDS011;34170;54.364;18.582;2023-04-23T06:32:15;9.32;;;6.60;;
48363;SDS011;34170;54.364;18.582;2023-04-23T06:34:46;11.23;;;6.60;;
48363;SDS011;34170;54.364;18.582;2023-04-23T06:39:57;12.57;;;6.72;;
48363;SDS011;34170;54.364;18.582;2023-04-23T06:42:25;10.82;;;7.00;;
48363;SDS011;34170;54.364;18.582;2023-04-23T06:45:25;17.23;;;7.75;;
48363;SDS011;34170;54.364;18.582;2023-04-23T06:47:52;11.05;;;6.43;;
48363;SDS011;34170;54.364;18.582;2023-04-23T06:50:19;14.15;;;7.00;;
48363;SDS011;34170;54.364;18.582;2023-04-23T06:52:47;9.90;;;6.60;;
48363;SDS011;34170;54.364;18.582;2023-04-23T06:55:14;14.80;;;7.72;;
48363;SDS011;34170;54.364;18.582;2023-04-23T06:57:42;12.88;;;6.90;;
48363;SDS011;34170;54.364;18.582;2023-04-23T07:00:09;10.15;;;6.85;;
48363;SDS011;34170;54.364;18.582;2023-04-23T07:02:40;13.18;;;7.15;;
48363;SDS011;34170;54.364;18.582;2023-04-23T07:05:08;9.50;;;6.68;;
48363;SDS011;34170;54.364;18.582;2023-04-23T07:07:36;12.82;;;6.97;;
48363;SDS011;34170;54.364;18.582;2023-04-23T07:10:04;11.07;;;6.53;;
48363;SDS011;34170;54.364;18.582;2023-04-23T07:12:33;12.00;;;7.22;;
48363;SDS011;34170;54.364;18.582;2023-04-23T07:15:00;9.50;;;6.10;;
48363;SDS011;34170;54.364;18.582;2023-04-23T07:17:28;11.68;;;6.93;;
48363;SDS011;34170;54.364;18.582;2023-04-23T07:19:55;9.85;;;6.47;;
48363;SDS011;34170;54.364;18.582;2023-04-23T07:22:24;10.20;;;7.10;;
48363;SDS011;34170;54.364;18.582;2023-04-23T07:24:52;12.65;;;7.57;;
48363;SDS011;34170;54.364;18.582;2023-04-23T07:27:20;10.10;;;6.78;;
48363;SDS011;34170;54.364;18.582;2023-04-23T07:29:47;9.98;;;7.05;;
48363;SDS011;34170;54.364;18.582;2023-04-23T07:32:15;9.95;;;6.90;;
48363;SDS011;34170;54.364;18.582;2023-04-23T07:34:42;11.23;;;7.18;;
48363;SDS011;34170;54.364;18.582;2023-04-23T07:37:10;10.95;;;6.75;;
48363;SDS011;34170;54.364;18.582;2023-04-23T07:39:37;9.98;;;6.63;;
48363;SDS011;34170;54.364;18.582;2023-04-23T07:42:07;16.65;;;6.68;;
48363;SDS011;34170;54.364;18.582;2023-04-23T07:44:35;9.50;;;6.57;;
48363;SDS011;34170;54.364;18.582;2023-04-23T07:47:02;12.38;;;7.80;;
48363;SDS011;34170;54.364;18.582;2023-04-23T07:49:29;9.63;;;7.07;;
48363;SDS011;34170;54.364;18.582;2023-04-23T07:51:57;9.75;;;6.82;;
48363;SDS011;34170;54.364;18.582;2023-04-23T07:54:25;11.13;;;6.85;;
48363;SDS011;34170;54.364;18.582;2023-04-23T07:56:52;12.30;;;6.80;;
48363;SDS011;34170;54.364;18.582;2023-04-23T07:59:19;12.02;;;7.28;;
48363;SDS011;34170;54.364;18.582;2023-04-23T08:01:47;9.70;;;6.07;;
48363;SDS011;34170;54.364;18.582;2023-04-23T08:04:14;11.45;;;7.10;;
48363;SDS011;34170;54.364;18.582;2023-04-23T08:06:42;11.38;;;7.22;;
48363;SDS011;34170;54.364;18.582;2023-04-23T08:09:09;12.90;;;7.18;;
48363;SDS011;34170;54.364;18.582;2023-04-23T08:11:37;10.48;;;6.43;;
48363;SDS011;34170;54.364;18.582;2023-04-23T08:14:04;10.07;;;5.82;;
48363;SDS011;34170;54.364;18.582;2023-04-23T08:16:32;9.50;;;6.47;;
48363;SDS011;34170;54.364;18.582;2023-04-23T08:19:02;13.32;;;6.38;;
48363;SDS011;34170;54.364;18.582;2023-04-23T08:21:33;11.23;;;6.47;;
48363;SDS011;34170;54.364;18.582;2023-04-23T08:24:01;10.52;;;6.35;;
48363;SDS011;34170;54.364;18.582;2023-04-23T08:26:29;11.60;;;6.75;;
48363;SDS011;34170;54.364;18.582;2023-04-23T08:28:57;9.45;;;6.10;;
48363;SDS011;34170;54.364;18.582;2023-04-23T08:31:26;10.25;;;6.35;;
48363;SDS011;34170;54.364;18.582;2023-04-23T08:33:54;7.85;;;5.95;;
48363;SDS011;34170;54.364;18.582;2023-04-23T08:36:22;8.90;;;6.38;;
48363;SDS011;34170;54.364;18.582;2023-04-23T08:38:50;9.02;;;6.30;;
48363;SDS011;34170;54.364;18.582;2023-04-23T08:41:17;11.60;;;6.57;;
48363;SDS011;34170;54.364;18.582;2023-04-23T08:46:35;10.77;;;5.88;;
48363;SDS011;34170;54.364;18.582;2023-04-23T08:49:03;8.63;;;6.28;;
48363;SDS011;34170;54.364;18.582;2023-04-23T08:51:35;9.73;;;5.78;;
48363;SDS011;34170;54.364;18.582;2023-04-23T08:54:08;9.02;;;6.22;;
48363;SDS011;34170;54.364;18.582;2023-04-23T08:56:41;10.85;;;5.75;;
48363;SDS011;34170;54.364;18.582;2023-04-23T08:59:10;12.57;;;6.68;;
48363;SDS011;34170;54.364;18.582;2023-04-23T09:01:38;11.32;;;5.88;;
48363;SDS011;34170;54.364;18.582;2023-04-23T09:04:07;15.50;;;6.35;;
48363;SDS011;34170;54.364;18.582;2023-04-23T09:06:36;10.25;;;5.80;;
48363;SDS011;34170;54.364;18.582;2023-04-23T09:09:03;9.23;;;5.93;;
48363;SDS011;34170;54.364;18.582;2023-04-23T09:11:35;10.10;;;5.50;;
48363;SDS011;34170;54.364;18.582;2023-04-23T09:14:03;9.32;;;5.60;;
48363;SDS011;34170;54.364;18.582;2023-04-23T09:16:31;7.70;;;5.28;;
48363;SDS011;34170;54.364;18.582;2023-04-23T09:18:58;8.20;;;5.60;;
48363;SDS011;34170;54.364;18.582;2023-04-23T09:21:26;9.45;;;5.43;;
48363;SDS011;34170;54.364;18.582;2023-04-23T09:23:53;10.82;;;5.07;;
48363;SDS011;34170;54.364;18.582;2023-04-23T09:26:21;9.20;;;5.47;;
48363;SDS011;34170;54.364;18.582;2023-04-23T09:28:49;7.55;;;5.07;;
48363;SDS011;34170;54.364;18.582;2023-04-23T09:31:20;10.35;;;5.20;;
48363;SDS011;34170;54.364;18.582;2023-04-23T09:33:52;10.18;;;5.65;;
48363;SDS011;34170;54.364;18.582;2023-04-23T09:36:20;9.27;;;5.25;;
48363;SDS011;34170;54.364;18.582;2023-04-23T09:38:49;8.40;;;4.85;;
48363;SDS011;34170;54.364;18.582;2023-04-23T09:41:22;9.90;;;4.88;;
48363;SDS011;34170;54.364;18.582;2023-04-23T09:43:52;7.47;;;4.70;;
48363;SDS011;34170;54.364;18.582;2023-04-23T09:46:32;11.57;;;5.28;;
48363;SDS011;34170;54.364;18.582;2023-04-23T09:49:01;7.28;;;4.30;;
48363;SDS011;34170;54.364;18.582;2023-04-23T09:51:37;8.20;;;4.72;;
48363;SDS011;34170;54.364;18.582;2023-04-23T09:54:09;7.50;;;4.20;;
48363;SDS011;34170;54.364;18.582;2023-04-23T09:56:41;9.63;;;5.20;;
48363;SDS011;34170;54.364;18.582;2023-04-23T09:59:19;7.43;;;4.40;;
48363;SDS011;34170;54.364;18.582;2023-04-23T10:02:03;11.43;;;5.03;;
48363;SDS011;34170;54.364;18.582;2023-04-23T10:04:32;5.80;;;4.32;;
48363;SDS011;34170;54.364;18.582;2023-04-23T10:07:01;6.18;;;4.20;;
48363;SDS011;34170;54.364;18.582;2023-04-23T10:09:45;7.30;;;4.57;;
48363;SDS011;34170;54.364;18.582;2023-04-23T10:12:13;7.22;;;4.20;;
48363;SDS011;34170;54.364;18.582;2023-04-23T10:14:44;5.17;;;3.77;;
48363;SDS011;34170;54.364;18.582;2023-04-23T10:17:12;7.97;;;4.07;;
48363;SDS011;34170;54.364;18.582;2023-04-23T10:19:39;8.07;;;4.22;;
48363;SDS011;34170;54.364;18.582;2023-04-23T10:22:09;10.13;;;4.30;;
48363;SDS011;34170;54.364;18.582;2023-04-23T10:24:45;9.77;;;4.57;;
48363;SDS011;34170;54.364;18.582;2023-04-23T10:27:18;9.68;;;5.28;;
48363;SDS011;34170;54.364;18.582;2023-04-23T10:29:51;8.02;;;3.95;;
48363;SDS011;34170;54.364;18.582;2023-04-23T10:32:20;9.73;;;4.70;;
48363;SDS011;34170;54.364;18.582;2023-04-23T10:34:47;14.00;;;4.38;;
48363;SDS011;34170;54.364;18.582;2023-04-23T10:37:15;9.57;;;5.13;;
48363;SDS011;34170;54.364;18.582;2023-04-23T10:39:49;10.05;;;4.32;;
48363;SDS011;34170;54.364;18.582;2023-04-23T10:42:20;7.40;;;4.15;;
48363;SDS011;34170;54.364;18.582;2023-04-23T10:44:49;6.45;;;3.80;;
48363;SDS011;34170;54.364;18.582;2023-04-23T10:47:29;7.30;;;3.72;;
48363;SDS011;34170;54.364;18.582;2023-04-23T10:49:56;8.98;;;4.38;;
48363;SDS011;34170;54.364;18.582;2023-04-23T10:52:24;7.43;;;4.60;;
48363;SDS011;34170;54.364;18.582;2023-04-23T10:54:58;8.73;;;4.10;;
48363;SDS011;34170;54.364;18.582;2023-04-23T10:57:26;8.43;;;4.20;;
48363;SDS011;34170;54.364;18.582;2023-04-23T10:59:54;9.00;;;4.55;;
48363;SDS011;34170;54.364;18.582;2023-04-23T11:02:22;7.45;;;3.80;;
48363;SDS011;34170;54.364;18.582;2023-04-23T11:04:53;7.53;;;3.95;;
48363;SDS011;34170;54.364;18.582;2023-04-23T11:07:30;6.35;;;3.78;;
48363;SDS011;34170;54.364;18.582;2023-04-23T11:09:59;10.65;;;3.88;;
48363;SDS011;34170;54.364;18.582;2023-04-23T11:12:40;8.95;;;3.72;;
48363;SDS011;34170;54.364;18.582;2023-04-23T11:15:10;11.82;;;3.92;;
48363;SDS011;34170;54.364;18.582;2023-04-23T11:22:42;8.07;;;3.05;;
48363;SDS011;34170;54.364;18.582;2023-04-23T11:25:17;8.95;;;3.55;;
48363;SDS011;34170;54.364;18.582;2023-04-23T11:27:47;10.70;;;3.80;;
48363;SDS011;34170;54.364;18.582;2023-04-23T11:30:16;8.85;;;3.67;;
48363;SDS011;34170;54.364;18.582;2023-04-23T11:32:49;4.88;;;2.72;;
48363;SDS011;34170;54.364;18.582;2023-04-23T11:35:18;7.20;;;2.60;;
48363;SDS011;34170;54.364;18.582;2023-04-23T11:37:48;7.22;;;2.55;;
48363;SDS011;34170;54.364;18.582;2023-04-23T11:40:16;7.65;;;2.60;;
48363;SDS011;34170;54.364;18.582;2023-04-23T11:42:53;13.95;;;3.13;;
48363;SDS011;34170;54.364;18.582;2023-04-23T11:45:22;4.60;;;2.55;;
48363;SDS011;34170;54.364;18.582;2023-04-23T11:47:55;6.07;;;2.30;;
48363;SDS011;34170;54.364;18.582;2023-04-23T11:50:26;5.30;;;2.20;;
48363;SDS011;34170;54.364;18.582;2023-04-23T11:53:06;5.30;;;2.33;;
48363;SDS011;34170;54.364;18.582;2023-04-23T11:55:36;7.65;;;2.17;;
48363;SDS011;34170;54.364;18.582;2023-04-23T11:58:10;4.70;;;2.20;;
48363;SDS011;34170;54.364;18.582;2023-04-23T12:00:37;4.20;;;2.60;;
48363;SDS011;34170;54.364;18.582;2023-04-23T12:03:05;7.88;;;2.67;;
48363;SDS011;34170;54.364;18.582;2023-04-23T12:05:38;4.95;;;2.50;;
48363;SDS011;34170;54.364;18.582;2023-04-23T12:08:09;7.40;;;2.83;;
48363;SDS011;34170;54.364;18.582;2023-04-23T12:10:48;4.25;;;2.67;;
48363;SDS011;34170;54.364;18.582;2023-04-23T12:13:16;6.90;;;2.58;;
48363;SDS011;34170;54.364;18.582;2023-04-23T12:15:46;9.40;;;3.10;;
48363;SDS011;34170;54.364;18.582;2023-04-23T12:18:14;9.98;;;3.13;;
48363;SDS011;34170;54.364;18.582;2023-04-23T12:20:42;5.65;;;3.10;;
48363;SDS011;34170;54.364;18.582;2023-04-23T12:23:10;7.85;;;3.25;;
48363;SDS011;34170;54.364;18.582;2023-04-23T12:25:38;7.03;;;3.15;;
48363;SDS011;34170;54.364;18.582;2023-04-23T12:28:08;6.43;;;2.92;;
48363;SDS011;34170;54.364;18.582;2023-04-23T12:30:41;10.70;;;2.67;;
48363;SDS011;34170;54.364;18.582;2023-04-23T12:33:10;5.47;;;2.80;;
48363;SDS011;34170;54.364;18.582;2023-04-23T12:35:42;5.00;;;2.88;;
48363;SDS011;34170;54.364;18.582;2023-04-23T12:38:24;5.75;;;3.20;;
48363;SDS011;34170;54.364;18.582;2023-04-23T12:40:56;5.50;;;2.30;;
48363;SDS011;34170;54.364;18.582;2023-04-23T12:43:25;6.30;;;3.28;;
48363;SDS011;34170;54.364;18.582;2023-04-23T12:45:53;4.70;;;3.08;;
48363;SDS011;34170;54.364;18.582;2023-04-23T12:48:21;8.07;;;2.90;;
48363;SDS011;34170;54.364;18.582;2023-04-23T12:50:48;8.98;;;2.60;;
48363;SDS011;34170;54.364;18.582;2023-04-23T12:53:16;6.45;;;3.28;;
48363;SDS011;34170;54.364;18.582;2023-04-23T12:55:44;5.75;;;3.30;;
48363;SDS011;34170;54.364;18.582;2023-04-23T12:58:12;5.20;;;3.13;;
48363;SDS011;34170;54.364;18.582;2023-04-23T13:00:39;6.25;;;2.92;;
48363;SDS011;34170;54.364;18.582;2023-04-23T13:03:06;6.38;;;3.10;;
48363;SDS011;34170;54.364;18.582;2023-04-23T13:05:34;6.28;;;2.85;;
48363;SDS011;34170;54.364;18.582;2023-04-23T13:08:02;6.93;;;3.25;;
48363;SDS011;34170;54.364;18.582;2023-04-23T13:10:29;9.15;;;3.03;;
48363;SDS011;34170;54.364;18.582;2023-04-23T13:12:57;8.60;;;3.03;;
48363;SDS011;34170;54.364;18.582;2023-04-23T13:15:24;5.40;;;2.78;;
48363;SDS011;34170;54.364;18.582;2023-04-23T13:17:53;7.57;;;2.85;;
48363;SDS011;34170;54.364;18.582;2023-04-23T13:20:20;8.18;;;2.80;;
48363;SDS011;34170;54.364;18.582;2023-04-23T13:22:48;4.40;;;2.50;;
48363;SDS011;34170;54.364;18.582;2023-04-23T13:25:15;4.93;;;2.72;;
48363;SDS011;34170;54.364;18.582;2023-04-23T13:27:42;6.97;;;2.70;;
48363;SDS011;34170;54.364;18.582;2023-04-23T13:30:10;4.70;;;2.60;;
48363;SDS011;34170;54.364;18.582;2023-04-23T13:32:38;7.65;;;2.72;;
48363;SDS011;34170;54.364;18.582;2023-04-23T13:35:05;5.88;;;2.60;;
48363;SDS011;34170;54.364;18.582;2023-04-23T13:37:33;4.78;;;3.03;;
48363;SDS011;34170;54.364;18.582;2023-04-23T13:40:00;5.28;;;2.60;;
48363;SDS011;34170;54.364;18.582;2023-04-23T13:42:29;6.65;;;2.90;;
48363;SDS011;34170;54.364;18.582;2023-04-23T13:44:56;6.97;;;2.63;;
48363;SDS011;34170;54.364;18.582;2023-04-23T13:47:24;6.28;;;3.20;;
48363;SDS011;34170;54.364;18.582;2023-04-23T13:49:53;6.20;;;2.63;;
48363;SDS011;34170;54.364;18.582;2023-04-23T13:52:20;6.55;;;2.60;;
48363;SDS011;34170;54.364;18.582;2023-04-23T13:54:48;6.93;;;2.95;;
48363;SDS011;34170;54.364;18.582;2023-04-23T13:57:16;5.10;;;2.35;;
48363;SDS011;34170;54.364;18.582;2023-04-23T13:59:44;9.85;;;2.63;;
48363;SDS011;34170;54.364;18.582;2023-04-23T14:02:11;6.50;;;2.85;;
48363;SDS011;34170;54.364;18.582;2023-04-23T14:04:38;3.75;;;2.20;;
48363;SDS011;34170;54.364;18.582;2023-04-23T14:07:06;5.65;;;3.03;;
48363;SDS011;34170;54.364;18.582;2023-04-23T14:09:33;5.10;;;2.63;;
48363;SDS011;34170;54.364;18.582;2023-04-23T14:12:01;6.75;;;2.42;;
48363;SDS011;34170;54.364;18.582;2023-04-23T14:14:28;6.95;;;2.42;;
48363;SDS011;34170;54.364;18.582;2023-04-23T14:16:56;3.90;;;2.10;;
48363;SDS011;34170;54.364;18.582;2023-04-23T14:19:23;4.95;;;2.35;;
48363;SDS011;34170;54.364;18.582;2023-04-23T14:21:51;5.55;;;2.45;;
48363;SDS011;34170;54.364;18.582;2023-04-23T14:24:22;7.63;;;2.47;;
48363;SDS011;34170;54.364;18.582;2023-04-23T14:26:53;5.93;;;2.42;;
48363;SDS011;34170;54.364;18.582;2023-04-23T14:32:16;9.02;;;3.22;;
48363;SDS011;34170;54.364;18.582;2023-04-23T14:34:43;4.55;;;2.35;;
48363;SDS011;34170;54.364;18.582;2023-04-23T14:37:11;5.07;;;2.42;;
48363;SDS011;34170;54.364;18.582;2023-04-23T14:39:39;6.97;;;3.00;;
48363;SDS011;34170;54.364;18.582;2023-04-23T14:42:07;5.82;;;2.88;;
48363;SDS011;34170;54.364;18.582;2023-04-23T14:44:35;5.88;;;2.90;;
48363;SDS011;34170;54.364;18.582;2023-04-23T14:47:02;5.85;;;2.30;;
48363;SDS011;34170;54.364;18.582;2023-04-23T14:49:32;8.27;;;2.20;;
48363;SDS011;34170;54.364;18.582;2023-04-23T14:51:59;6.68;;;2.15;;